createdAt,value
2023-02-14T02:12:36.365Z,3.70
2023-02-14T02:15:28.813Z,3.70
2023-02-14T02:18:25.634Z,3.70
2023-02-14T02:21:56.493Z,3.70
2023-02-14T02:24:56.704Z,3.60
2023-02-14T02:28:13.831Z,3.50
2023-02-14T02:31:23.076Z,3.50
2023-02-14T02:34:41.830Z,3.50
2023-02-14T02:37:42.120Z,3.50
2023-02-14T02:40:42.529Z,3.40
2023-02-14T02:43:45.248Z,3.30
2023-02-14T02:46:54.613Z,3.30
2023-02-14T02:50:12.361Z,3.20
2023-02-14T02:53:09.335Z,3.30
2023-02-14T02:56:20.102Z,3.40
2023-02-14T02:59:18.630Z,3.60
2023-02-14T03:02:12.742Z,3.60
2023-02-14T03:05:05.469Z,3.70
2023-02-14T03:07:55.325Z,3.70
2023-02-14T03:10:47.288Z,3.70
2023-02-14T03:13:57.493Z,3.70
2023-02-14T03:17:08.263Z,3.70
2023-02-14T03:20:15.422Z,3.60
2023-02-14T03:23:11.070Z,3.60
2023-02-14T03:26:09.515Z,3.60
2023-02-14T03:29:07.950Z,3.60
2023-02-14T03:32:00.983Z,3.50
2023-02-14T03:34:56.634Z,3.50
2023-02-14T03:37:53.165Z,3.50
2023-02-14T03:40:49.749Z,3.40
2023-02-14T03:43:46.101Z,3.30
2023-02-14T03:46:41.091Z,3.20
2023-02-14T03:49:34.054Z,3.30
2023-02-14T03:52:25.014Z,3.30
2023-02-14T03:55:18.517Z,3.30
2023-02-14T03:58:13.083Z,3.20
2023-02-14T04:01:12.614Z,3.20
2023-02-14T04:04:04.414Z,3.20
2023-02-14T04:06:54.302Z,3.20
2023-02-14T04:09:44.409Z,3.20
2023-02-14T04:12:37.930Z,3.30
2023-02-14T04:15:27.775Z,3.30
2023-02-14T04:18:36.257Z,3.30
2023-02-14T04:21:25.644Z,3.30
2023-02-14T04:24:15.061Z,3.20
2023-02-14T04:27:11.616Z,3.10
2023-02-14T04:30:01.176Z,3.10
2023-02-14T04:32:50.858Z,3.10
2023-02-14T04:35:41.742Z,3.00
2023-02-14T04:38:31.436Z,3.00
2023-02-14T04:41:20.789Z,2.90
2023-02-14T04:44:10.181Z,2.80
2023-02-14T04:46:59.638Z,2.60
2023-02-14T04:49:49.107Z,2.50
2023-02-14T04:52:40.013Z,2.50
2023-02-14T04:55:29.773Z,2.40
2023-02-14T04:58:19.372Z,2.40
2023-02-14T05:01:08.889Z,2.40
2023-02-14T05:03:58.594Z,2.40
2023-02-14T05:06:48.034Z,2.40
2023-02-14T05:09:39.032Z,2.40
2023-02-14T05:12:28.583Z,2.50
2023-02-14T05:15:18.445Z,2.50
2023-02-14T05:18:07.995Z,2.60
2023-02-14T05:20:58.123Z,2.60
2023-02-14T05:23:47.894Z,2.50
2023-02-14T05:26:38.832Z,2.50
2023-02-14T05:29:28.497Z,2.60
2023-02-14T05:32:17.799Z,2.60
2023-02-14T05:35:08.254Z,2.60
2023-02-14T05:37:57.788Z,2.70
2023-02-14T05:40:47.553Z,2.70
2023-02-14T05:43:38.551Z,2.80
2023-02-14T05:46:28.078Z,2.80
2023-02-14T05:49:17.769Z,2.90
2023-02-14T05:52:07.408Z,3.00
2023-02-14T05:54:56.791Z,3.00
2023-02-14T05:57:46.149Z,3.10
2023-02-14T06:00:39.362Z,3.20
2023-02-14T06:03:30.264Z,3.40
2023-02-14T06:06:19.862Z,3.50
2023-02-14T06:09:09.391Z,3.50
2023-02-14T06:11:59.358Z,3.50
2023-02-14T06:14:48.850Z,3.50
2023-02-14T06:17:39.879Z,3.60
2023-02-14T06:20:29.614Z,3.70
2023-02-14T06:23:18.909Z,3.70
2023-02-14T06:26:08.386Z,3.60
2023-02-14T06:28:58.744Z,3.70
2023-02-14T06:31:48.480Z,3.70
2023-02-14T06:34:41.264Z,3.70
2023-02-14T06:37:30.744Z,3.70
2023-02-14T06:40:20.364Z,3.80
2023-02-14T06:43:09.891Z,3.80
2023-02-14T06:45:59.472Z,3.90
2023-02-14T06:48:48.975Z,4.00
2023-02-14T06:51:40.008Z,4.00
2023-02-14T06:54:29.535Z,4.10
2023-02-14T06:57:18.990Z,4.10
2023-02-14T07:00:10.434Z,4.20
2023-02-14T07:03:00.144Z,4.20
2023-02-14T07:05:50.001Z,4.30
2023-02-14T07:08:41.082Z,4.40
2023-02-14T07:11:30.569Z,4.40
2023-02-14T07:14:20.256Z,4.40
2023-02-14T07:17:09.989Z,4.50
2023-02-14T07:19:59.505Z,4.50
2023-02-14T07:22:49.038Z,4.50
2023-02-14T07:25:41.078Z,4.60
2023-02-14T07:28:31.008Z,4.70
2023-02-14T07:31:23.897Z,4.70
2023-02-14T07:34:13.549Z,4.80
2023-02-14T07:37:03.662Z,4.80
2023-02-14T07:39:53.186Z,4.90
2023-02-14T07:42:44.335Z,4.90
2023-02-14T07:45:33.830Z,5.10
2023-02-14T07:48:23.610Z,5.20
2023-02-14T07:51:13.233Z,5.30
2023-02-14T07:54:02.828Z,5.30
2023-02-14T07:56:52.361Z,5.40
2023-02-14T07:59:43.334Z,5.30
2023-02-14T08:02:33.084Z,5.30
2023-02-14T08:05:22.672Z,5.30
2023-02-14T08:08:12.275Z,5.30
2023-02-14T08:11:02.117Z,5.40
2023-02-14T08:13:51.689Z,5.50
2023-02-14T08:16:42.762Z,5.60
2023-02-14T08:19:32.634Z,5.70
2023-02-14T08:22:22.267Z,5.70
2023-02-14T08:25:11.802Z,5.70
2023-02-14T08:28:03.386Z,5.90
2023-02-14T08:30:53.663Z,5.80
2023-02-14T08:33:45.869Z,6.00
2023-02-14T08:36:35.811Z,6.10
2023-02-14T08:39:25.350Z,6.10
2023-02-14T08:42:14.865Z,6.30
2023-02-14T08:45:04.747Z,6.10
2023-02-14T08:47:54.167Z,5.90
2023-02-14T08:50:45.069Z,6.00
2023-02-14T08:53:34.572Z,6.00
2023-02-14T08:56:25.114Z,6.00
2023-02-14T08:59:15.183Z,5.90
2023-02-14T09:02:04.638Z,5.70
2023-02-14T09:04:54.194Z,5.70
2023-02-14T09:07:45.159Z,5.70
2023-02-14T09:10:34.645Z,5.70
2023-02-14T09:13:24.224Z,5.60
2023-02-14T09:16:16.933Z,5.60
2023-02-14T09:19:06.614Z,5.50
2023-02-14T09:22:07.001Z,5.50
2023-02-14T09:25:03.193Z,5.60
2023-02-14T09:28:01.065Z,5.70
2023-02-14T09:30:58.379Z,5.80
2023-02-14T09:34:09.021Z,5.80
2023-02-14T09:36:58.660Z,5.80
2023-02-14T09:39:48.200Z,5.90
2023-02-14T09:42:51.001Z,5.90
2023-02-14T09:45:41.135Z,5.90
2023-02-14T09:48:36.738Z,5.90
2023-02-14T09:51:29.772Z,6.00
2023-02-14T09:54:24.704Z,6.00
2023-02-14T09:57:19.029Z,6.00
2023-02-14T10:00:20.858Z,6.10
2023-02-14T10:03:44.662Z,6.20
2023-02-14T10:06:50.961Z,6.20
2023-02-14T10:09:59.804Z,6.30
2023-02-14T10:12:55.384Z,6.30
2023-02-14T10:15:48.952Z,6.40
2023-02-14T10:18:44.027Z,6.50
2023-02-14T10:21:38.593Z,6.50
2023-02-14T10:24:32.131Z,6.50
2023-02-14T10:27:32.492Z,6.70
2023-02-14T10:30:23.544Z,6.80
2023-02-14T10:33:18.886Z,6.70
2023-02-14T10:36:21.994Z,6.80
2023-02-14T10:39:31.090Z,6.80
2023-02-14T10:42:27.528Z,6.80
2023-02-14T10:45:24.544Z,6.80
2023-02-14T10:48:22.629Z,6.90
2023-02-14T10:51:19.449Z,6.90
2023-02-14T10:54:20.158Z,6.90
2023-02-14T10:57:16.051Z,6.90
2023-02-14T11:00:11.320Z,6.90
2023-02-14T11:03:04.448Z,6.90
2023-02-14T11:05:55.985Z,6.90
2023-02-14T11:08:45.485Z,7.00
2023-02-14T11:11:40.905Z,7.10
2023-02-14T11:14:33.507Z,7.10
2023-02-14T11:17:30.268Z,7.20
2023-02-14T11:20:31.806Z,7.20
2023-02-14T11:23:25.507Z,7.20
2023-02-14T11:26:23.877Z,7.20
2023-02-14T11:29:16.555Z,7.20
2023-02-14T11:32:11.081Z,7.20
2023-02-14T11:35:04.296Z,7.30
2023-02-14T11:37:55.203Z,7.30
2023-02-14T11:40:46.500Z,7.30
2023-02-14T11:43:38.065Z,7.30
2023-02-14T11:46:32.533Z,7.30
2023-02-14T11:49:33.556Z,7.40
2023-02-14T11:52:26.944Z,7.50
2023-02-14T11:55:28.306Z,7.50
2023-02-14T11:58:41.886Z,7.50
2023-02-14T12:01:35.870Z,7.50
2023-02-14T12:04:32.773Z,7.60
2023-02-14T12:07:29.302Z,7.60
2023-02-14T12:10:23.608Z,7.60
2023-02-14T12:13:27.298Z,7.60
2023-02-14T12:16:27.434Z,7.60
2023-02-14T12:19:22.387Z,7.60
2023-02-14T12:22:16.145Z,7.60
2023-02-14T12:25:12.331Z,7.70
2023-02-14T12:28:06.962Z,7.70
2023-02-14T12:30:58.031Z,7.70
2023-02-14T12:33:50.382Z,7.70
2023-02-14T12:37:05.224Z,7.70
2023-02-14T12:40:11.093Z,7.70
2023-02-14T12:43:21.242Z,7.70
2023-02-14T12:49:44.869Z,7.50
2023-02-14T12:52:58.094Z,7.60
2023-02-14T12:55:56.955Z,7.60
2023-02-14T12:58:53.805Z,7.50
2023-02-14T13:02:07.089Z,7.60
2023-02-14T13:05:03.293Z,7.60
2023-02-14T13:08:06.162Z,7.60
2023-02-14T13:11:03.316Z,7.60
2023-02-14T13:14:04.902Z,7.60
2023-02-14T13:16:59.145Z,7.60
2023-02-14T13:19:59.514Z,7.60
2023-02-14T13:22:50.531Z,7.50
2023-02-14T13:25:43.913Z,7.50
2023-02-14T13:28:34.787Z,7.40
2023-02-14T13:31:24.342Z,7.50
2023-02-14T13:34:26.530Z,7.50
2023-02-14T13:37:19.300Z,7.50
2023-02-14T13:40:18.122Z,7.50
2023-02-14T13:43:07.645Z,7.40
2023-02-14T13:45:57.552Z,7.50
2023-02-14T13:48:59.681Z,7.40
2023-02-14T13:51:53.912Z,7.50
2023-02-14T13:54:48.110Z,7.40
2023-02-14T13:57:40.945Z,7.40
2023-02-14T14:00:42.391Z,7.40
2023-02-14T14:03:58.352Z,7.30
2023-02-14T14:07:21.454Z,7.30
2023-02-14T14:10:13.947Z,7.30
2023-02-14T14:13:03.540Z,7.20
2023-02-14T14:16:28.225Z,7.20
2023-02-14T14:19:40.066Z,7.20
2023-02-14T14:22:31.805Z,7.20
2023-02-14T14:25:33.980Z,7.10
2023-02-14T14:28:25.778Z,7.00
2023-02-14T14:31:16.017Z,7.00
2023-02-14T14:34:05.510Z,7.00
2023-02-14T14:37:04.924Z,6.90
2023-02-14T14:39:57.509Z,6.80
2023-02-14T14:42:49.180Z,6.80
2023-02-14T14:45:41.058Z,6.70
2023-02-14T14:48:34.685Z,6.60
2023-02-14T14:51:30.074Z,6.60
2023-02-14T14:54:22.149Z,6.50
2023-02-14T14:57:20.202Z,6.50
2023-02-14T15:00:32.545Z,6.40
2023-02-14T15:03:26.966Z,6.30
2023-02-14T15:06:19.587Z,6.20
2023-02-14T15:09:17.537Z,6.20
2023-02-14T15:12:24.839Z,6.10
2023-02-14T15:15:18.505Z,6.00
2023-02-14T15:18:09.473Z,6.10
2023-02-14T15:20:59.322Z,5.90
2023-02-14T15:23:50.882Z,5.80
2023-02-14T15:26:40.319Z,5.70
2023-02-14T15:29:32.291Z,5.70
2023-02-14T15:32:24.830Z,5.60
2023-02-14T15:35:17.019Z,5.50
2023-02-14T15:38:08.625Z,5.40
2023-02-14T15:40:59.884Z,5.30
2023-02-14T15:43:53.939Z,5.20
2023-02-14T15:46:44.279Z,5.10
2023-02-14T15:49:41.860Z,5.00
2023-02-14T15:52:31.687Z,4.90
2023-02-14T15:55:24.961Z,4.80
2023-02-14T15:58:21.199Z,4.70
2023-02-14T16:01:11.624Z,4.60
2023-02-14T16:04:04.954Z,4.60
2023-02-14T16:07:23.489Z,4.40
2023-02-14T16:10:24.057Z,4.40
2023-02-14T16:13:22.320Z,4.20
2023-02-14T16:16:14.379Z,4.20
2023-02-14T16:19:05.059Z,4.10
2023-02-14T16:21:57.816Z,4.00
2023-02-14T16:24:49.035Z,4.00
2023-02-14T16:27:39.031Z,3.90
2023-02-14T16:30:29.048Z,3.90
2023-02-14T16:33:22.447Z,3.80
2023-02-14T16:36:22.091Z,3.80
2023-02-14T16:39:18.436Z,3.80
2023-02-14T16:42:17.308Z,3.80
2023-02-14T16:45:08.271Z,3.80
2023-02-14T16:47:58.920Z,3.80
2023-02-14T16:50:49.613Z,3.80
2023-02-14T16:53:42.747Z,3.80
2023-02-14T16:56:38.767Z,3.70
2023-02-14T16:59:31.060Z,3.70
2023-02-14T17:02:21.583Z,3.60
2023-02-14T17:05:14.338Z,3.60
2023-02-14T17:08:05.946Z,3.50
2023-02-14T17:10:57.629Z,3.40
2023-02-14T17:13:48.833Z,3.40
2023-02-14T17:16:40.909Z,3.40
2023-02-14T17:19:31.172Z,3.30
2023-02-14T17:22:21.209Z,3.30
2023-02-14T17:25:12.044Z,3.20
2023-02-14T17:28:02.261Z,3.20
2023-02-14T17:30:52.238Z,3.20
2023-02-14T17:33:44.329Z,3.10
2023-02-14T17:36:35.250Z,3.10
2023-02-14T17:39:26.586Z,3.00
2023-02-14T17:42:17.161Z,3.00
2023-02-14T17:45:12.622Z,3.00
2023-02-14T17:48:03.317Z,2.90
2023-02-14T17:50:58.966Z,2.90
2023-02-14T17:53:49.873Z,2.80
2023-02-14T17:56:40.664Z,2.80
2023-02-14T17:59:32.372Z,2.80
2023-02-14T18:02:23.720Z,2.90
2023-02-14T18:05:14.694Z,2.80
2023-02-14T18:08:08.878Z,2.80
2023-02-14T18:11:02.044Z,2.70
2023-02-14T18:13:54.268Z,2.70
2023-02-14T18:16:46.515Z,2.70
2023-02-14T18:19:37.562Z,2.70
2023-02-14T18:22:32.615Z,2.70
2023-02-14T18:25:25.895Z,2.70
2023-02-14T18:28:17.564Z,2.80
2023-02-14T18:31:10.390Z,2.90
2023-02-14T18:34:03.643Z,3.00
2023-02-14T18:36:56.473Z,3.00
2023-02-14T18:39:49.642Z,3.20
2023-02-14T18:42:42.123Z,3.20
2023-02-14T18:45:41.944Z,3.40
2023-02-14T18:48:34.022Z,3.60
2023-02-14T18:51:27.740Z,3.70
2023-02-14T18:54:19.534Z,3.80
2023-02-14T18:57:10.530Z,3.90
2023-02-14T19:00:07.697Z,4.10
2023-02-14T19:03:01.457Z,4.20
2023-02-14T19:05:54.349Z,4.30
2023-02-14T19:08:45.635Z,4.40
2023-02-14T19:11:42.305Z,4.50
2023-02-14T19:14:33.733Z,4.50
2023-02-14T19:17:26.467Z,4.40
2023-02-14T19:20:17.949Z,4.40
2023-02-14T19:23:11.556Z,4.40
2023-02-14T19:26:21.794Z,4.40
2023-02-14T19:29:13.752Z,4.40
2023-02-14T19:32:06.622Z,4.40
2023-02-14T19:35:03.331Z,4.40
2023-02-14T19:37:57.017Z,4.40
2023-02-14T19:40:51.392Z,4.50
2023-02-14T19:43:45.887Z,4.50
2023-02-14T19:46:40.949Z,4.50
2023-02-14T19:49:37.097Z,4.40
2023-02-14T19:52:30.606Z,4.40
2023-02-14T19:55:29.923Z,4.40
2023-02-14T19:58:22.867Z,4.50
2023-02-14T20:01:24.761Z,4.60
2023-02-14T20:04:26.466Z,4.50
2023-02-14T20:07:19.121Z,4.50
2023-02-14T20:10:15.969Z,4.50
2023-02-14T20:13:11.426Z,4.50
2023-02-14T20:16:03.321Z,4.50
2023-02-14T20:18:58.364Z,4.40
2023-02-14T20:21:53.121Z,4.40
2023-02-14T20:24:46.546Z,4.40
2023-02-14T20:27:40.679Z,4.40
2023-02-14T20:30:35.476Z,4.40
2023-02-14T20:33:27.729Z,4.30
2023-02-14T20:36:20.990Z,4.30
2023-02-14T20:39:13.828Z,4.30
2023-02-14T20:42:06.131Z,4.30
2023-02-14T20:45:00.204Z,4.30
2023-02-14T20:47:52.990Z,4.30
2023-02-14T20:50:44.824Z,4.30
2023-02-14T20:53:36.493Z,4.30
2023-02-14T20:56:29.594Z,4.30
2023-02-14T20:59:26.908Z,4.20
2023-02-14T21:02:19.061Z,4.30
2023-02-14T21:05:10.872Z,4.40
2023-02-14T21:08:02.204Z,4.40
2023-02-14T21:10:54.672Z,4.50
2023-02-14T21:13:47.603Z,4.50
2023-02-14T21:16:38.987Z,4.40
2023-02-14T21:19:32.677Z,4.40
2023-02-14T21:22:24.286Z,4.40
2023-02-14T21:25:17.126Z,4.30
2023-02-14T21:28:08.925Z,4.30
2023-02-14T21:31:07.257Z,4.30
2023-02-14T21:34:03.071Z,4.30
2023-02-14T21:36:57.361Z,4.30
2023-02-14T21:39:48.376Z,4.30
2023-02-14T21:42:40.182Z,4.30
2023-02-14T21:45:53.111Z,4.40
2023-02-14T21:49:03.325Z,4.40
2023-02-14T21:52:04.401Z,4.50
2023-02-14T21:54:54.471Z,4.40
2023-02-14T21:57:45.119Z,4.50
2023-02-14T22:00:35.584Z,4.40
2023-02-14T22:03:27.834Z,4.40
2023-02-14T22:06:17.895Z,4.30
2023-02-14T22:09:12.737Z,4.20
2023-02-14T22:12:02.536Z,4.20
2023-02-14T22:14:52.276Z,4.10
2023-02-14T22:17:42.113Z,4.10
2023-02-14T22:20:32.519Z,4.10
2023-02-14T22:23:25.994Z,4.00
2023-02-14T22:26:20.716Z,4.00
2023-02-14T22:29:12.962Z,4.10
2023-02-14T22:32:02.491Z,4.00
2023-02-14T22:34:51.913Z,4.00
2023-02-14T22:37:41.393Z,3.90
2023-02-14T22:40:30.797Z,4.00
2023-02-14T22:43:22.176Z,4.00
2023-02-14T22:46:13.107Z,4.00
2023-02-14T22:49:02.727Z,4.00
2023-02-14T22:51:52.227Z,4.00
2023-02-14T22:54:41.611Z,3.90
2023-02-14T22:57:32.610Z,3.90
2023-02-14T23:00:23.549Z,3.90
2023-02-14T23:03:12.920Z,3.90
2023-02-14T23:06:02.733Z,4.00
2023-02-14T23:08:53.052Z,4.00
2023-02-14T23:11:43.837Z,3.90
2023-02-14T23:14:50.303Z,4.00
2023-02-14T23:17:58.509Z,4.00
2023-02-14T23:21:05.118Z,4.10
2023-02-14T23:23:54.658Z,4.10
2023-02-14T23:26:44.103Z,4.10
2023-02-14T23:29:33.776Z,4.20
2023-02-14T23:32:23.324Z,4.10
2023-02-14T23:35:14.294Z,4.10
2023-02-14T23:38:03.939Z,4.10
2023-02-14T23:41:10.589Z,4.10
2023-02-14T23:44:00.960Z,4.20
2023-02-14T23:46:52.010Z,4.10
2023-02-14T23:49:43.059Z,4.00
2023-02-14T23:52:33.921Z,4.00
2023-02-14T23:55:26.607Z,4.00
2023-02-14T23:58:16.075Z,4.00
